createdAt,value
2017-10-21T20:13:56.890Z,15.00
2017-10-21T20:14:56.859Z,15.09
2017-10-21T20:16:51.430Z,15.09
2017-10-21T20:17:51.429Z,15.06
2017-10-21T20:18:51.430Z,15.03
2017-10-21T20:19:51.414Z,15.03
2017-10-21T20:20:51.412Z,15.06
2017-10-21T20:21:51.416Z,15.14
2017-10-21T20:22:51.414Z,15.11
2017-10-21T20:23:51.413Z,15.11
2017-10-21T20:24:51.426Z,15.06
2017-10-21T20:25:51.410Z,15.09
2017-10-21T20:26:51.417Z,15.11
2017-10-21T20:27:51.413Z,15.06
2017-10-21T20:28:51.416Z,15.09
2017-10-21T20:29:51.417Z,15.02
2017-10-21T20:30:51.414Z,15.02
2017-10-21T20:31:51.414Z,15.00
2017-10-21T20:32:51.415Z,15.04
2017-10-21T20:33:51.412Z,14.99
2017-10-21T20:34:51.410Z,15.04
2017-10-21T20:35:51.415Z,15.03
2017-10-21T20:36:51.416Z,15.02
2017-10-21T20:37:51.417Z,15.03
2017-10-21T20:38:51.416Z,15.03
2017-10-21T20:39:51.412Z,15.00
2017-10-21T20:40:51.426Z,14.96
2017-10-21T20:41:51.416Z,14.94
2017-10-21T20:42:51.419Z,14.96
2017-10-21T20:43:51.418Z,15.03
2017-10-21T20:44:51.416Z,15.07
2017-10-21T20:45:51.487Z,15.06
2017-10-21T20:46:51.418Z,15.10
2017-10-21T20:47:51.416Z,15.06
2017-10-21T20:48:51.417Z,15.04
2017-10-21T20:49:51.425Z,15.00
2017-10-21T20:50:51.419Z,15.06
2017-10-21T20:51:51.424Z,15.06
2017-10-21T20:52:51.416Z,15.00
2017-10-21T20:53:51.416Z,14.99
2017-10-21T20:54:51.416Z,15.06
2017-10-21T20:55:51.412Z,15.02
2017-10-21T20:56:51.414Z,15.04
2017-10-21T20:57:51.417Z,15.06
2017-10-21T20:58:51.414Z,14.96
2017-10-21T20:59:51.416Z,14.99
2017-10-21T21:00:51.476Z,15.00
2017-10-21T21:01:51.414Z,14.94
2017-10-21T21:02:51.417Z,14.92
2017-10-21T21:03:51.417Z,15.03
2017-10-21T21:04:51.418Z,15.02
2017-10-21T21:05:51.417Z,15.02
2017-10-21T21:06:51.420Z,14.94
2017-10-21T21:07:51.417Z,14.94
2017-10-21T21:08:51.417Z,14.94
2017-10-21T21:09:51.415Z,15.00
2017-10-21T21:10:51.414Z,14.88
2017-10-21T21:11:51.415Z,15.02
2017-10-21T21:12:51.415Z,15.02
2017-10-21T21:13:51.436Z,14.86
2017-10-21T21:14:51.419Z,14.86
2017-10-21T21:15:51.413Z,14.88
2017-10-21T21:16:51.417Z,14.86
2017-10-21T21:17:51.415Z,14.94
2017-10-21T21:18:51.415Z,14.97
2017-10-21T21:19:51.415Z,14.94
2017-10-21T21:20:51.467Z,14.85
2017-10-21T21:21:51.418Z,14.86
2017-10-21T21:22:51.426Z,14.85
2017-10-21T21:23:51.416Z,14.85
2017-10-21T21:24:51.413Z,14.85
2017-10-21T21:25:51.416Z,14.91
2017-10-21T21:26:51.453Z,14.86
2017-10-21T21:27:51.417Z,14.82
2017-10-21T21:28:51.412Z,14.82
2017-10-21T21:29:51.414Z,14.85
2017-10-21T21:30:51.415Z,14.89
2017-10-21T21:31:51.414Z,14.86
2017-10-21T21:32:51.414Z,14.89
2017-10-21T21:33:51.414Z,14.89
2017-10-21T21:34:51.415Z,14.89
2017-10-21T21:35:51.416Z,14.86
2017-10-21T21:36:51.417Z,14.85
2017-10-21T21:37:51.413Z,14.85
2017-10-21T21:38:51.414Z,14.86
2017-10-21T21:39:51.414Z,14.89
2017-10-21T21:40:51.413Z,14.82
2017-10-21T21:41:51.446Z,14.85
2017-10-21T21:42:51.415Z,14.85
2017-10-21T21:43:51.480Z,14.92
2017-10-21T21:44:51.413Z,14.96
2017-10-21T21:45:51.416Z,14.94
2017-10-21T21:46:51.415Z,15.00
2017-10-21T21:47:51.408Z,14.91
2017-10-21T21:48:51.421Z,14.94
2017-10-21T21:49:51.416Z,14.92
2017-10-21T21:50:51.413Z,14.94
2017-10-21T21:51:51.420Z,14.96
2017-10-21T21:52:51.415Z,14.92
2017-10-21T21:53:51.414Z,14.96
2017-10-21T21:54:51.415Z,14.88
2017-10-21T21:55:51.414Z,14.96
2017-10-21T21:56:51.416Z,14.96
2017-10-21T21:57:51.414Z,15.00
2017-10-21T21:58:51.414Z,14.97
2017-10-21T21:59:51.411Z,14.99
2017-10-21T22:00:51.414Z,14.97
2017-10-21T22:01:51.474Z,15.00
2017-10-21T22:02:51.492Z,14.99
2017-10-21T22:03:51.431Z,15.02
2017-10-21T22:04:51.431Z,15.00
2017-10-21T22:05:51.414Z,15.03
2017-10-21T22:06:51.416Z,15.00
2017-10-21T22:07:51.410Z,15.02
2017-10-21T22:08:51.447Z,15.03
2017-10-21T22:09:51.414Z,15.02
2017-10-21T22:10:51.414Z,14.97
2017-10-21T22:11:51.412Z,14.99
2017-10-21T22:12:51.431Z,15.02
2017-10-21T22:13:51.433Z,15.02
2017-10-21T22:14:51.439Z,14.92
2017-10-21T22:15:51.413Z,14.97
2017-10-21T22:16:51.420Z,14.91
2017-10-21T22:17:51.419Z,14.86
2017-10-21T22:18:51.413Z,14.86
2017-10-21T22:19:51.414Z,14.86
2017-10-21T22:20:51.430Z,14.86
2017-10-21T22:21:51.415Z,14.84
2017-10-21T22:22:51.413Z,14.86
2017-10-21T22:23:51.413Z,14.88
2017-10-21T22:24:51.407Z,14.86
2017-10-21T22:25:51.414Z,14.81
2017-10-21T22:26:51.418Z,14.81
2017-10-21T22:27:51.414Z,14.97
2017-10-21T22:28:51.416Z,14.92
2017-10-21T22:29:51.415Z,14.84
2017-10-21T22:30:51.416Z,14.84
2017-10-21T22:31:51.413Z,14.92
2017-10-21T22:32:51.414Z,14.85
2017-10-21T22:33:51.414Z,14.97
2017-10-21T22:34:51.432Z,14.97
2017-10-21T22:35:51.414Z,15.00
2017-10-21T22:36:51.413Z,15.00
2017-10-21T22:37:51.412Z,15.00
2017-10-21T22:38:51.417Z,14.96
2017-10-21T22:39:51.411Z,15.00
2017-10-21T22:40:51.410Z,15.00
2017-10-21T22:41:51.413Z,14.96
2017-10-21T22:42:51.411Z,14.88
2017-10-21T22:43:51.414Z,14.91
2017-10-21T22:44:51.413Z,14.84
2017-10-21T22:45:51.412Z,14.85
2017-10-21T22:46:51.410Z,14.81
2017-10-21T22:47:51.409Z,14.73
2017-10-21T22:48:51.415Z,14.73
2017-10-21T22:49:51.408Z,14.65
2017-10-21T22:50:51.407Z,14.68
2017-10-21T22:51:51.410Z,14.48
2017-10-21T22:52:51.407Z,14.59
2017-10-21T22:53:51.402Z,14.53
2017-10-21T22:54:51.404Z,14.45
2017-10-21T22:55:51.406Z,14.44
2017-10-21T22:56:51.408Z,14.33
2017-10-21T22:57:51.404Z,14.43
2017-10-21T22:58:51.404Z,14.40
2017-10-21T22:59:51.400Z,14.30
2017-10-21T23:00:51.401Z,14.35
2017-10-21T23:01:51.400Z,14.36
2017-10-21T23:02:51.400Z,14.33
2017-10-21T23:03:51.399Z,14.28
2017-10-21T23:04:51.399Z,14.14
2017-10-21T23:05:51.395Z,14.07
2017-10-21T23:06:51.396Z,14.08
2017-10-21T23:07:51.408Z,14.07
2017-10-21T23:08:51.397Z,14.07
2017-10-21T23:09:51.394Z,13.92
2017-10-21T23:10:51.392Z,13.87
2017-10-21T23:11:51.388Z,13.92
2017-10-21T23:12:51.388Z,13.70
2017-10-21T23:13:51.389Z,13.72
2017-10-21T23:14:51.389Z,13.74
2017-10-21T23:15:51.385Z,13.65
2017-10-21T23:16:51.384Z,13.57
2017-10-21T23:17:51.383Z,13.60
2017-10-21T23:18:51.380Z,13.62
2017-10-21T23:19:51.378Z,13.53
2017-10-21T23:20:51.377Z,13.53
2017-10-21T23:21:51.378Z,13.62
2017-10-21T23:22:51.377Z,13.60
2017-10-21T23:23:51.372Z,13.60
2017-10-21T23:24:51.372Z,13.54
2017-10-21T23:25:51.371Z,13.57
2017-10-21T23:26:51.373Z,13.53
2017-10-21T23:27:51.370Z,13.52
2017-10-21T23:28:51.365Z,13.50
2017-10-21T23:29:51.366Z,13.49
2017-10-21T23:30:51.367Z,13.53
2017-10-21T23:31:51.362Z,13.53
2017-10-21T23:32:51.361Z,13.47
2017-10-21T23:33:51.360Z,13.50
2017-10-21T23:34:51.359Z,13.50
2017-10-21T23:35:51.354Z,13.50
2017-10-21T23:36:51.355Z,13.46
2017-10-21T23:37:51.351Z,13.49
2017-10-21T23:38:51.354Z,13.46
2017-10-21T23:39:51.353Z,13.50
2017-10-21T23:40:51.350Z,13.53
2017-10-21T23:41:51.352Z,13.53
2017-10-21T23:42:51.353Z,13.52
2017-10-21T23:43:51.343Z,13.54
2017-10-21T23:44:51.349Z,13.59
2017-10-21T23:45:51.342Z,13.57
2017-10-21T23:46:51.340Z,13.59
2017-10-21T23:47:51.339Z,13.56
2017-10-21T23:48:51.338Z,13.59
2017-10-21T23:49:51.336Z,13.62
2017-10-21T23:50:51.336Z,13.60
2017-10-21T23:51:51.333Z,13.57
2017-10-21T23:52:51.332Z,13.62
2017-10-21T23:53:51.332Z,13.62
2017-10-21T23:54:51.328Z,13.57
2017-10-21T23:55:51.331Z,13.67
2017-10-21T23:56:51.327Z,13.59
2017-10-21T23:57:51.324Z,13.65
2017-10-21T23:58:51.325Z,13.60
2017-10-21T23:59:51.321Z,13.60
